createdAt,value
2022-08-09T00:02:29.168Z,32.51
2022-08-09T00:07:31.169Z,32.73
2022-08-09T00:12:46.907Z,32.88
2022-08-09T00:18:07.477Z,32.80
2022-08-09T00:23:57.236Z,32.84
2022-08-09T00:28:35.947Z,33.19
2022-08-09T00:33:51.036Z,33.22
2022-08-09T00:38:54.271Z,33.60
2022-08-09T00:44:19.576Z,33.79
2022-08-09T00:49:18.266Z,34.27
2022-08-09T00:54:31.580Z,34.84
2022-08-09T00:59:41.512Z,34.99
2022-08-09T01:05:13.700Z,35.04
2022-08-09T01:10:41.806Z,35.04
2022-08-09T01:15:51.994Z,35.18
2022-08-09T01:21:10.038Z,34.79
2022-08-09T01:26:46.254Z,35.36
2022-08-09T01:32:30.873Z,35.81
2022-08-09T01:37:16.769Z,35.44
2022-08-09T01:42:33.517Z,35.22
2022-08-09T01:47:44.902Z,35.29
2022-08-09T01:52:48.153Z,35.09
2022-08-09T01:57:55.931Z,35.35
2022-08-09T02:02:59.246Z,35.40
2022-08-09T02:08:40.186Z,35.68
2022-08-09T02:13:37.709Z,36.07
2022-08-09T02:18:47.724Z,36.06
2022-08-09T02:23:54.977Z,36.17
2022-08-09T02:29:02.293Z,36.19
2022-08-09T02:34:13.675Z,36.35
2022-08-09T02:39:54.969Z,36.45
2022-08-09T02:45:03.859Z,36.71
2022-08-09T02:50:13.489Z,36.79
2022-08-09T02:55:20.736Z,37.16
2022-08-09T03:00:26.112Z,37.62
2022-08-09T03:05:34.531Z,37.82
2022-08-09T03:10:38.614Z,37.99
2022-08-09T03:16:06.650Z,37.95
2022-08-09T03:21:06.580Z,38.11
2022-08-09T03:26:08.690Z,37.89
2022-08-09T03:31:21.238Z,38.03
2022-08-09T03:36:27.688Z,38.32
2022-08-09T03:41:45.854Z,38.53
2022-08-09T03:46:51.010Z,38.75
2022-08-09T03:52:00.349Z,38.78
2022-08-09T03:57:17.933Z,38.73
2022-08-09T04:02:26.892Z,38.59
2022-08-09T04:07:33.699Z,38.66
2022-08-09T04:12:53.643Z,38.63
2022-08-09T04:17:57.754Z,38.67
2022-08-09T04:22:59.973Z,38.48
2022-08-09T04:28:03.624Z,38.49
2022-08-09T04:33:05.802Z,38.43
2022-08-09T04:38:10.545Z,38.23
2022-08-09T04:43:12.548Z,38.17
2022-08-09T04:48:16.041Z,37.94
2022-08-09T04:53:18.089Z,38.03
2022-08-09T04:58:20.031Z,38.04
2022-08-09T05:03:40.435Z,38.05
2022-08-09T05:08:47.782Z,37.87
2022-08-09T05:13:50.046Z,37.90
2022-08-09T05:18:59.108Z,37.83
2022-08-09T05:24:03.738Z,37.70
2022-08-09T05:29:06.098Z,37.58
2022-08-09T05:34:07.974Z,37.55
2022-08-09T05:39:28.268Z,37.44
2022-08-09T05:44:34.610Z,37.30
2022-08-09T05:50:26.004Z,37.32
2022-08-09T05:55:03.257Z,37.06
2022-08-09T06:00:10.018Z,36.60
2022-08-09T06:05:16.295Z,36.20
2022-08-09T06:10:18.544Z,35.80
2022-08-09T06:15:21.349Z,35.47
2022-08-09T06:20:23.465Z,35.03
2022-08-09T06:25:26.466Z,34.69
2022-08-09T06:30:29.183Z,34.18
2022-08-09T06:35:56.498Z,33.93
2022-08-09T06:40:55.051Z,33.66
2022-08-09T06:46:06.593Z,32.92
2022-08-09T06:51:12.910Z,32.86
2022-08-09T06:56:16.795Z,32.42
2022-08-09T07:01:24.008Z,32.15
2022-08-09T07:06:29.612Z,32.11
2022-08-09T07:11:34.196Z,31.67
2022-08-09T07:16:55.319Z,31.69
2022-08-09T07:22:00.036Z,31.43
2022-08-09T07:27:02.390Z,30.95
2022-08-09T07:32:05.253Z,31.00
2022-08-09T07:37:15.639Z,30.97
2022-08-09T07:42:18.015Z,31.38
2022-08-09T07:47:21.036Z,30.83
2022-08-09T07:52:24.211Z,30.71
2022-08-09T07:57:35.861Z,30.06
2022-08-09T08:02:42.621Z,29.76
2022-08-09T08:09:01.456Z,29.31
2022-08-09T08:13:06.877Z,28.85
2022-08-09T08:18:14.511Z,28.14
2022-08-09T08:23:18.811Z,27.78
2022-08-09T08:28:32.190Z,27.67
2022-08-09T08:33:40.615Z,27.23
2022-08-09T08:38:54.291Z,26.83
2022-08-09T08:44:02.546Z,26.78
2022-08-09T08:49:07.837Z,26.10
2022-08-09T08:54:20.172Z,25.55
2022-08-09T08:59:23.049Z,25.29
2022-08-09T09:04:37.792Z,25.18
2022-08-09T09:10:01.769Z,24.81
2022-08-09T09:15:07.264Z,24.58
2022-08-09T09:20:15.514Z,24.29
2022-08-09T09:26:00.985Z,23.72
2022-08-09T09:31:06.135Z,23.49
2022-08-09T09:36:20.352Z,23.43
2022-08-09T09:41:33.403Z,23.07
2022-08-09T09:46:52.472Z,22.86
2022-08-09T09:52:16.649Z,23.05
2022-08-09T09:58:02.901Z,23.09
2022-08-09T10:02:56.123Z,22.56
2022-08-09T10:08:26.100Z,23.00
2022-08-09T10:13:43.344Z,22.63
2022-08-09T10:18:56.170Z,22.63
2022-08-09T10:24:04.654Z,22.89
2022-08-09T10:29:36.099Z,22.92
2022-08-09T10:34:32.785Z,22.29
2022-08-09T10:39:40.979Z,22.20
2022-08-09T10:44:59.559Z,22.33
2022-08-09T10:50:52.276Z,22.51
2022-08-09T10:56:22.608Z,22.62
2022-08-09T11:03:15.571Z,22.60
2022-08-09T11:07:00.167Z,22.45
2022-08-09T11:12:12.448Z,22.67
2022-08-09T11:17:14.447Z,22.23
2022-08-09T11:22:24.551Z,22.10
2022-08-09T11:28:03.943Z,22.08
2022-08-09T11:33:26.164Z,22.31
2022-08-09T11:38:33.137Z,21.98
2022-08-09T11:43:37.434Z,21.26
2022-08-09T11:48:52.381Z,21.21
2022-08-09T11:54:27.606Z,20.66
2022-08-09T11:59:35.893Z,20.58
2022-08-09T12:04:40.630Z,20.26
2022-08-09T12:09:50.561Z,20.28
2022-08-09T12:15:07.255Z,20.70
2022-08-09T12:20:22.190Z,20.64
2022-08-09T12:25:31.991Z,20.75
2022-08-09T12:30:40.056Z,21.16
2022-08-09T12:35:42.959Z,20.83
2022-08-09T12:40:51.870Z,20.72
2022-08-09T12:46:00.165Z,20.12
2022-08-09T12:51:03.655Z,20.02
2022-08-09T12:56:39.582Z,19.82
2022-08-09T13:01:49.044Z,19.10
2022-08-09T13:06:51.793Z,19.64
2022-08-09T13:12:03.216Z,19.55
2022-08-09T13:17:13.718Z,19.72
2022-08-09T13:22:38.124Z,20.18
2022-08-09T13:27:55.303Z,20.30
2022-08-09T13:32:58.339Z,20.27
2022-08-09T13:38:03.402Z,20.26
2022-08-09T13:43:09.519Z,19.85
2022-08-09T13:48:12.302Z,20.13
2022-08-09T13:53:16.816Z,19.74
2022-08-09T13:58:18.731Z,19.86
2022-08-09T14:04:02.245Z,19.79
2022-08-09T14:08:43.726Z,19.62
2022-08-09T14:14:16.418Z,19.74
2022-08-09T14:19:08.492Z,19.74
2022-08-09T14:24:18.726Z,20.13
2022-08-09T14:30:18.444Z,19.79
2022-08-09T14:34:56.876Z,20.08
2022-08-09T14:39:59.027Z,19.84
2022-08-09T14:46:39.360Z,20.15
2022-08-09T14:50:24.976Z,19.84
2022-08-09T14:55:29.256Z,19.69
2022-08-09T15:00:36.111Z,19.77
2022-08-09T15:05:39.048Z,19.92
2022-08-09T15:10:42.104Z,19.59
2022-08-09T15:15:44.028Z,19.67
2022-08-09T15:21:54.616Z,20.05
2022-08-09T15:26:09.149Z,20.19
2022-08-09T15:31:21.282Z,19.89
2022-08-09T15:36:30.681Z,20.06
2022-08-09T15:41:32.803Z,20.00
2022-08-09T15:46:35.295Z,19.98
2022-08-09T15:52:02.703Z,19.96
2022-08-09T15:56:59.218Z,20.26
2022-08-09T16:02:03.666Z,19.89
2022-08-09T16:07:07.635Z,19.85
2022-08-09T16:12:11.263Z,19.77
2022-08-09T16:17:17.255Z,20.24
2022-08-09T16:22:19.241Z,19.72
2022-08-09T16:27:22.567Z,20.33
2022-08-09T16:32:53.505Z,20.09
2022-08-09T16:37:56.946Z,20.11
2022-08-09T16:43:02.194Z,20.47
2022-08-09T16:48:41.898Z,20.47
2022-08-09T16:53:32.521Z,20.51
2022-08-09T16:58:37.123Z,20.37
2022-08-09T17:03:41.817Z,20.33
2022-08-09T17:09:01.576Z,20.35
2022-08-09T17:14:06.524Z,20.71
2022-08-09T17:19:10.659Z,20.59
2022-08-09T17:24:28.400Z,20.71
2022-08-09T17:29:37.907Z,20.73
2022-08-09T17:35:03.730Z,21.17
2022-08-09T17:40:06.306Z,21.38
2022-08-09T17:45:37.673Z,21.23
2022-08-09T17:50:41.678Z,21.38
2022-08-09T17:56:03.361Z,21.50
2022-08-09T18:01:08.515Z,21.42
2022-08-09T18:06:14.917Z,21.63
2022-08-09T18:11:46.856Z,21.71
2022-08-09T18:16:57.676Z,22.28
2022-08-09T18:21:59.667Z,22.12
2022-08-09T18:27:03.764Z,22.55
2022-08-09T18:32:09.249Z,22.63
2022-08-09T18:37:48.119Z,22.60
2022-08-09T18:42:33.438Z,22.65
2022-08-09T18:47:37.627Z,22.63
2022-08-09T18:52:39.929Z,22.56
2022-08-09T18:57:45.395Z,22.63
2022-08-09T19:02:50.945Z,22.75
2022-08-09T19:08:04.813Z,22.90
2022-08-09T19:13:20.448Z,22.93
2022-08-09T19:18:33.690Z,23.01
2022-08-09T19:24:32.392Z,23.38
2022-08-09T19:29:09.500Z,23.49
2022-08-09T19:34:22.992Z,23.61
2022-08-09T19:39:43.208Z,23.97
2022-08-09T19:44:51.237Z,24.52
2022-08-09T19:50:07.638Z,24.85
2022-08-09T19:55:15.529Z,25.05
2022-08-09T20:00:17.808Z,25.66
2022-08-09T20:05:20.100Z,25.81
2022-08-09T20:10:33.947Z,26.22
2022-08-09T20:16:35.773Z,26.41
2022-08-09T20:21:02.061Z,26.15
2022-08-09T20:26:04.265Z,26.22
2022-08-09T20:31:09.174Z,26.34
2022-08-09T20:36:12.515Z,26.59
2022-08-09T20:41:14.767Z,26.79
2022-08-09T20:46:41.773Z,26.85
2022-08-09T20:51:41.331Z,27.14
2022-08-09T20:56:47.283Z,26.94
2022-08-09T21:01:53.489Z,26.96
2022-08-09T21:06:55.676Z,27.38
2022-08-09T21:18:21.220Z,27.99
2022-08-09T21:22:38.092Z,28.03
2022-08-09T21:28:01.490Z,28.18
2022-08-09T21:33:03.590Z,28.05
2022-08-09T21:38:09.482Z,28.03
2022-08-09T21:43:12.089Z,28.35
2022-08-09T21:48:23.487Z,28.47
2022-08-09T21:53:41.008Z,28.31
2022-08-09T21:58:43.419Z,28.49
2022-08-09T22:03:48.432Z,28.67
2022-08-09T22:09:01.653Z,28.99
2022-08-09T22:14:03.631Z,29.20
2022-08-09T22:19:57.755Z,29.32
2022-08-09T22:24:27.451Z,29.31
2022-08-09T22:29:46.206Z,29.69
2022-08-09T22:34:54.406Z,30.09
2022-08-09T22:40:06.008Z,30.23
2022-08-09T22:48:15.223Z,30.35
2022-08-09T22:50:32.799Z,30.31
2022-08-09T22:56:06.395Z,30.50
2022-08-09T23:00:56.627Z,30.77
2022-08-09T23:05:59.464Z,30.70
2022-08-09T23:11:01.912Z,31.28
2022-08-09T23:16:03.959Z,31.84
2022-08-09T23:21:06.472Z,31.61
2022-08-09T23:26:09.318Z,31.79
2022-08-09T23:31:11.491Z,31.89
2022-08-09T23:36:13.360Z,31.91
2022-08-09T23:41:28.271Z,31.73
2022-08-09T23:46:31.918Z,31.93
2022-08-09T23:51:33.772Z,31.79
2022-08-09T23:56:52.269Z,31.68
